Time;durP1;ratioP1;P1;durP2;ratioP2;P2;SDS_P1;SDS_P2;PMS_P1;PMS_P2;Temp;Humidity;BMP_temperature;BMP_pressure;BME280_temperature;BME280_humidity;BME280_pressure;Samples;Min_cycle;Max_cycle;Signal;HPM_P1;HPM_P2
2024/02/11 00:01:33;;;;;;;20.27;16.80;;;15.10;71.40;;;;;;4970450;28;20860;-67
2024/02/11 00:03:59;;;;;;;23.37;16.70;;;15.20;71.50;;;;;;4968267;28;20443;-65
2024/02/11 00:06:25;;;;;;;18.40;16.43;;;15.20;71.50;;;;;;4984634;28;20478;-68
2024/02/11 00:08:51;;;;;;;20.40;16.43;;;15.30;71.60;;;;;;4981245;28;20195;-65
2024/02/11 00:11:17;;;;;;;17.90;15.97;;;15.30;71.50;;;;;;4994601;28;20184;-65
2024/02/11 00:13:43;;;;;;;19.33;17.20;;;15.20;71.30;;;;;;4988250;28;20522;-66
2024/02/11 00:16:10;;;;;;;19.77;16.00;;;15.20;71.50;;;;;;4968540;28;20215;-65
2024/02/11 00:18:38;;;;;;;18.90;15.93;;;15.20;71.60;;;;;;4967157;28;20435;-67
2024/02/11 00:21:07;;;;;;;18.80;15.90;;;15.30;71.60;;;;;;4992869;28;21059;-66
2024/02/11 00:23:36;;;;;;;21.93;18.10;;;15.30;71.60;;;;;;4991883;28;20434;-64
2024/02/11 00:26:02;;;;;;;19.47;16.83;;;15.30;71.60;;;;;;4993039;28;20465;-67
2024/02/11 00:28:28;;;;;;;19.73;16.97;;;15.30;71.70;;;;;;4979842;28;20476;-65
2024/02/11 00:30:53;;;;;;;19.37;16.30;;;15.30;71.70;;;;;;4972394;28;20450;-67
2024/02/11 00:33:20;;;;;;;21.10;16.03;;;15.30;71.60;;;;;;4972225;28;20184;-65
2024/02/11 00:35:46;;;;;;;17.20;15.43;;;15.30;71.30;;;;;;5029869;28;20207;-65
2024/02/11 00:38:14;;;;;;;20.27;17.07;;;15.20;71.20;;;;;;4990508;28;20439;-67
2024/02/11 00:40:39;;;;;;;21.70;16.63;;;15.30;71.30;;;;;;5013425;28;20442;-65
2024/02/11 00:43:07;;;;;;;19.53;15.83;;;15.30;71.30;;;;;;5012164;28;20461;-66
2024/02/11 00:45:33;;;;;;;17.87;15.27;;;15.30;71.50;;;;;;5025651;28;20190;-66
2024/02/11 00:48:03;;;;;;;19.37;15.93;;;15.20;71.60;;;;;;4964721;28;20438;-65
2024/02/11 00:50:31;;;;;;;18.30;14.70;;;15.10;71.90;;;;;;4966407;28;20442;-65
2024/02/11 00:52:57;;;;;;;20.10;15.20;;;15.10;72.20;;;;;;4964151;28;20435;-66
2024/02/11 00:55:22;;;;;;;20.53;15.60;;;15.20;72.30;;;;;;4983177;28;20588;-66
2024/02/11 00:57:48;;;;;;;19.60;16.50;;;15.20;72.10;;;;;;4969802;28;20287;-65
2024/02/11 01:00:15;;;;;;;20.83;15.43;;;15.20;71.90;;;;;;4961606;28;20223;-65
2024/02/11 01:02:41;;;;;;;21.33;16.30;;;15.20;71.80;;;;;;4969903;28;20511;-66
2024/02/11 01:05:08;;;;;;;24.10;16.67;;;15.30;71.80;;;;;;4966448;28;20438;-66
2024/02/11 01:07:42;;;;;;;18.07;15.63;;;15.30;71.70;;;;;;4982241;28;20458;-65
2024/02/11 01:10:12;;;;;;;21.27;15.07;;;15.30;71.50;;;;;;4994494;28;20489;-64
2024/02/11 01:12:42;;;;;;;18.17;15.60;;;15.30;71.50;;;;;;5009912;28;20435;-65
2024/02/11 01:15:12;;;;;;;18.73;15.00;;;15.20;71.60;;;;;;4993730;28;20486;-65
2024/02/11 01:17:41;;;;;;;17.87;15.90;;;15.20;71.60;;;;;;4999112;28;20882;-65
2024/02/11 01:20:16;;;;;;;21.07;16.13;;;15.20;71.60;;;;;;4969741;28;20526;-66
2024/02/11 01:22:46;;;;;;;19.83;16.63;;;15.20;71.70;;;;;;5003028;28;20422;-65
2024/02/11 01:25:20;;;;;;;20.27;16.70;;;15.30;71.80;;;;;;5016677;28;20945;-70
2024/02/11 01:27:49;;;;;;;22.53;17.87;;;15.20;71.90;;;;;;5009005;28;20462;-66
2024/02/11 01:30:17;;;;;;;19.47;16.03;;;15.20;72.10;;;;;;4990044;28;20981;-64
2024/02/11 01:32:43;;;;;;;25.77;17.13;;;15.30;72.20;;;;;;4986763;28;20437;-67
2024/02/11 01:35:09;;;;;;;20.93;17.00;;;15.20;72.10;;;;;;4996639;28;20474;-62
2024/02/11 01:37:40;;;;;;;17.37;15.57;;;15.30;72.20;;;;;;4997583;28;20208;-63
2024/02/11 01:40:07;;;;;;;19.07;16.90;;;15.30;72.30;;;;;;5001388;28;20234;-61
2024/02/11 01:42:34;;;;;;;18.90;16.73;;;15.30;72.30;;;;;;5004068;28;20521;-62
2024/02/11 01:45:00;;;;;;;19.67;17.67;;;15.30;72.30;;;;;;5011504;28;20503;-63
2024/02/11 01:47:25;;;;;;;18.83;16.97;;;15.30;72.20;;;;;;4994674;28;20863;-62
2024/02/11 01:49:51;;;;;;;23.07;16.33;;;15.30;72.20;;;;;;5001184;28;20274;-62
2024/02/11 01:52:17;;;;;;;18.83;15.53;;;15.20;72.00;;;;;;5014324;28;20188;-63
2024/02/11 01:54:43;;;;;;;18.63;16.73;;;15.20;72.10;;;;;;5009493;28;20719;-63
2024/02/11 01:57:09;;;;;;;18.43;16.43;;;15.20;72.00;;;;;;5008363;28;20698;-63
2024/02/11 01:59:38;;;;;;;21.00;16.13;;;15.20;72.30;;;;;;4991488;28;20486;-62
2024/02/11 02:02:09;;;;;;;18.63;16.13;;;15.20;72.40;;;;;;4967057;28;20441;-61
2024/02/11 02:04:37;;;;;;;18.93;16.80;;;15.20;72.50;;;;;;4988311;28;20449;-62
2024/02/11 02:07:03;;;;;;;20.57;16.57;;;15.20;72.50;;;;;;5022338;28;20512;-62
2024/02/11 02:09:31;;;;;;;23.07;16.33;;;15.20;72.50;;;;;;4996751;28;20526;-63
2024/02/11 02:11:58;;;;;;;21.87;16.73;;;15.20;72.80;;;;;;5011948;28;20791;-62
2024/02/11 02:14:23;;;;;;;18.63;16.63;;;15.10;72.90;;;;;;5019878;28;20450;-62
2024/02/11 02:16:49;;;;;;;17.83;15.20;;;15.20;73.10;;;;;;5015772;28;20473;-63
2024/02/11 02:19:15;;;;;;;19.63;15.10;;;15.10;73.30;;;;;;5019035;28;20665;-62
2024/02/11 02:21:56;;;;;;;18.53;16.53;;;15.10;73.60;;;;;;5011221;28;20439;-62
2024/02/11 02:24:22;;;;;;;17.60;15.40;;;15.20;73.80;;;;;;4972370;28;20271;-62
2024/02/11 02:26:47;;;;;;;19.20;17.10;;;15.20;73.50;;;;;;5003928;28;20553;-60
2024/02/11 02:29:13;;;;;;;21.13;15.60;;;15.30;73.60;;;;;;5014630;28;20187;-62
2024/02/11 02:31:38;;;;;;;17.20;15.40;;;15.30;73.60;;;;;;4966188;28;20184;-62
2024/02/11 02:34:04;;;;;;;21.40;15.50;;;15.20;73.50;;;;;;4988144;28;20187;-60
2024/02/11 02:36:29;;;;;;;17.57;15.80;;;15.30;73.60;;;;;;4965630;28;20268;-62
2024/02/11 02:38:55;;;;;;;17.80;15.90;;;15.30;73.60;;;;;;4974992;28;20190;-63
2024/02/11 02:41:21;;;;;;;19.40;16.93;;;15.30;73.30;;;;;;4976695;28;20262;-62
2024/02/11 02:43:46;;;;;;;20.80;16.57;;;15.20;73.10;;;;;;4991197;28;20694;-62
2024/02/11 02:46:13;;;;;;;16.37;14.50;;;15.30;73.70;;;;;;4992392;28;20211;-60
2024/02/11 02:48:38;;;;;;;16.53;14.53;;;15.30;73.60;;;;;;4986874;28;20213;-61
2024/02/11 02:51:04;;;;;;;18.53;15.30;;;15.30;73.50;;;;;;4965122;28;20438;-62
2024/02/11 02:53:29;;;;;;;18.77;15.73;;;15.30;73.70;;;;;;4970542;28;20188;-63
2024/02/11 02:55:56;;;;;;;16.60;14.70;;;15.30;73.60;;;;;;4959643;28;20212;-62
2024/02/11 02:58:23;;;;;;;17.83;15.47;;;15.30;73.40;;;;;;4960930;28;20661;-62
2024/02/11 03:00:49;;;;;;;17.77;14.73;;;15.30;73.20;;;;;;4961475;28;20442;-60
2024/02/11 03:03:14;;;;;;;18.23;16.23;;;15.30;73.00;;;;;;4959736;28;20434;-60
2024/02/11 03:05:41;;;;;;;18.50;15.50;;;15.30;73.10;;;;;;4969278;28;20945;-62
2024/02/11 03:08:07;;;;;;;19.50;15.20;;;15.30;73.20;;;;;;4969005;28;20202;-62
2024/02/11 03:10:33;;;;;;;18.03;15.50;;;15.30;73.10;;;;;;4966882;28;20447;-62
2024/02/11 03:12:59;;;;;;;18.50;15.80;;;15.30;73.10;;;;;;4967973;28;20188;-62
2024/02/11 03:15:28;;;;;;;17.33;15.20;;;15.30;73.10;;;;;;4967592;28;21230;-62
2024/02/11 03:17:54;;;;;;;16.40;14.50;;;15.30;73.20;;;;;;4976562;28;20443;-62
2024/02/11 03:20:19;;;;;;;17.10;14.90;;;15.30;73.40;;;;;;4967973;28;20807;-61
2024/02/11 03:22:45;;;;;;;17.67;13.83;;;15.30;73.50;;;;;;4968246;28;20198;-62
2024/02/11 03:25:12;;;;;;;17.10;14.90;;;15.30;73.50;;;;;;4968376;28;20196;-61
2024/02/11 03:27:41;;;;;;;17.20;15.20;;;15.30;73.40;;;;;;4966508;28;20588;-63
2024/02/11 03:30:08;;;;;;;16.17;14.40;;;15.30;73.40;;;;;;4963711;28;21121;-61
2024/02/11 03:32:34;;;;;;;17.10;13.90;;;15.30;73.30;;;;;;4966243;28;20533;-62
2024/02/11 03:35:00;;;;;;;16.20;14.33;;;15.30;73.50;;;;;;4965990;28;20957;-63
2024/02/11 03:37:29;;;;;;;19.47;14.43;;;15.30;73.30;;;;;;4981075;28;20505;-62
2024/02/11 03:39:54;;;;;;;17.33;13.37;;;14.70;74.70;;;;;;5002120;28;20180;-63
2024/02/11 03:42:20;;;;;;;17.53;13.30;;;14.50;77.60;;;;;;4995163;28;20449;-62
2024/02/11 03:44:45;;;;;;;10.73;9.63;;;14.60;77.40;;;;;;5013619;28;20188;-62
2024/02/11 03:47:11;;;;;;;6.87;5.47;;;14.70;76.70;;;;;;4980809;28;20211;-62
2024/02/11 03:49:37;;;;;;;3.10;2.40;;;14.60;75.00;;;;;;4997654;28;20196;-62
2024/02/11 03:52:03;;;;;;;2.97;1.67;;;14.30;74.30;;;;;;5013679;28;20181;-63
2024/02/11 03:54:28;;;;;;;1.60;1.50;;;14.10;74.80;;;;;;5003044;28;20211;-62
2024/02/11 03:56:54;;;;;;;1.63;1.53;;;14.00;75.10;;;;;;4988849;28;20492;-61
2024/02/11 03:59:20;;;;;;;1.57;1.47;;;13.90;74.40;;;;;;5017995;28;20180;-62
2024/02/11 04:01:46;;;;;;;1.10;1.00;;;13.80;74.50;;;;;;4998498;28;20242;-62
2024/02/11 04:04:13;;;;;;;1.03;0.70;;;13.70;73.80;;;;;;5017142;28;20530;-62
2024/02/11 04:06:38;;;;;;;1.53;0.77;;;13.70;73.80;;;;;;4965838;28;20204;-62
2024/02/11 04:09:08;;;;;;;0.60;0.60;;;13.50;73.80;;;;;;4986551;28;20449;-62
2024/02/11 04:11:34;;;;;;;0.77;0.77;;;13.40;73.40;;;;;;4990513;28;20439;-60
2024/02/11 04:14:00;;;;;;;0.93;0.60;;;13.30;72.50;;;;;;4967075;28;20438;-62
2024/02/11 04:16:26;;;;;;;0.90;0.60;;;13.30;73.30;;;;;;4966503;28;20478;-62
2024/02/11 04:18:53;;;;;;;0.60;0.60;;;13.50;72.60;;;;;;4990704;28;21000;-61
2024/02/11 04:21:20;;;;;;;1.00;0.60;;;13.60;72.20;;;;;;4971939;28;20195;-62
2024/02/11 04:23:48;;;;;;;0.90;0.60;;;13.70;71.60;;;;;;4985687;28;20447;-60
2024/02/11 04:26:15;;;;;;;0.50;0.50;;;13.60;71.40;;;;;;4992884;28;20451;-62
2024/02/11 04:28:41;;;;;;;0.50;0.50;;;13.50;71.20;;;;;;4986438;28;20440;-61
2024/02/11 04:31:10;;;;;;;0.70;0.70;;;13.40;70.60;;;;;;4990654;28;20519;-62
2024/02/11 04:33:40;;;;;;;0.60;0.60;;;13.30;70.90;;;;;;4964724;28;20447;-61
2024/02/11 04:36:11;;;;;;;0.60;0.60;;;13.50;71.00;;;;;;4962713;28;20482;-62
2024/02/11 04:38:38;;;;;;;0.50;0.50;;;13.60;70.90;;;;;;4965261;28;20518;-62
2024/02/11 04:41:05;;;;;;;0.70;0.60;;;13.70;70.00;;;;;;4962154;28;20443;-62
2024/02/11 04:43:34;;;;;;;0.63;0.63;;;13.60;69.20;;;;;;4960458;28;20525;-60
2024/02/11 04:46:02;;;;;;;0.60;0.60;;;13.50;69.80;;;;;;4979444;28;20473;-62
2024/02/11 04:48:31;;;;;;;0.90;0.50;;;13.50;69.70;;;;;;4964359;28;20451;-60
2024/02/11 04:50:58;;;;;;;0.70;0.63;;;13.60;69.40;;;;;;4961264;28;20431;-62
2024/02/11 04:53:25;;;;;;;1.60;0.50;;;13.70;68.80;;;;;;4962033;28;20447;-60
2024/02/11 04:55:51;;;;;;;1.87;0.50;;;13.80;69.00;;;;;;4972654;28;20482;-62
2024/02/11 04:58:19;;;;;;;0.47;0.47;;;13.80;68.80;;;;;;4962784;28;20450;-61
2024/02/11 05:00:48;;;;;;;0.50;0.50;;;13.60;68.00;;;;;;4964910;28;20199;-62
2024/02/11 05:03:17;;;;;;;0.50;0.43;;;13.60;68.00;;;;;;4961573;28;20435;-61
2024/02/11 05:05:44;;;;;;;0.50;0.50;;;13.70;67.90;;;;;;4986612;28;20443;-62
2024/02/11 05:08:10;;;;;;;0.80;0.80;;;13.60;67.30;;;;;;4963992;28;20494;-61
2024/02/11 05:10:37;;;;;;;0.50;0.47;;;13.50;67.40;;;;;;4965462;28;20915;-61
2024/02/11 05:13:07;;;;;;;0.60;0.60;;;13.50;67.50;;;;;;4961203;28;20455;-62
2024/02/11 05:15:36;;;;;;;0.70;0.60;;;13.50;67.70;;;;;;4960574;28;20513;-61
2024/02/11 05:18:03;;;;;;;0.83;0.80;;;13.60;67.60;;;;;;4966139;28;20443;-60
2024/02/11 05:20:29;;;;;;;0.70;0.70;;;13.70;67.40;;;;;;4961448;28;20446;-62
2024/02/11 05:22:56;;;;;;;0.50;0.50;;;13.80;67.00;;;;;;4959666;28;21003;-62
2024/02/11 05:25:23;;;;;;;0.60;0.60;;;13.80;66.90;;;;;;4987366;28;20484;-62
2024/02/11 05:27:56;;;;;;;0.50;0.50;;;13.80;66.90;;;;;;4964335;28;20988;-62
2024/02/11 05:30:23;;;;;;;0.60;0.60;;;13.70;66.90;;;;;;4963550;28;20442;-60
2024/02/11 05:32:50;;;;;;;0.60;0.60;;;13.80;66.80;;;;;;4965161;28;21137;-61
2024/02/11 05:35:17;;;;;;;0.60;0.60;;;13.70;66.60;;;;;;4965303;28;20490;-61
2024/02/11 05:37:44;;;;;;;0.60;0.57;;;13.60;66.90;;;;;;4985993;28;20838;-59
2024/02/11 05:40:10;;;;;;;0.57;0.53;;;13.60;67.00;;;;;;4988657;28;20868;-61
2024/02/11 05:42:42;;;;;;;0.60;0.60;;;13.50;66.70;;;;;;5008831;28;20460;-61
2024/02/11 05:45:08;;;;;;;0.60;0.60;;;13.30;66.60;;;;;;4991047;28;20478;-61
2024/02/11 05:47:34;;;;;;;0.80;0.80;;;12.80;65.10;;;;;;5025304;28;20446;-61
2024/02/11 05:50:00;;;;;;;0.50;0.50;;;12.60;66.70;;;;;;5006319;28;20431;-62
2024/02/11 05:52:25;;;;;;;0.60;0.53;;;12.60;67.60;;;;;;4991081;28;20195;-61
2024/02/11 05:54:51;;;;;;;0.60;0.60;;;12.70;67.40;;;;;;4983179;28;20670;-62
2024/02/11 05:57:17;;;;;;;0.50;0.50;;;12.90;67.10;;;;;;5016839;28;20207;-61
2024/02/11 05:59:42;;;;;;;0.60;0.60;;;13.00;66.50;;;;;;4986940;28;20221;-61
2024/02/11 06:02:09;;;;;;;0.60;0.60;;;13.00;66.50;;;;;;5008027;28;20228;-62
2024/02/11 06:04:34;;;;;;;0.70;0.60;;;13.00;66.00;;;;;;5016307;28;20191;-61
2024/02/11 06:07:00;;;;;;;0.70;0.50;;;13.00;66.40;;;;;;4965555;28;20478;-61
2024/02/11 06:09:25;;;;;;;1.17;0.53;;;13.00;66.30;;;;;;4958841;28;20192;-61
2024/02/11 06:11:53;;;;;;;0.60;0.50;;;13.00;65.90;;;;;;4973944;28;20194;-61
2024/02/11 06:14:19;;;;;;;0.93;0.60;;;13.00;66.00;;;;;;4968005;28;20196;-62
2024/02/11 06:16:45;;;;;;;1.13;0.50;;;12.90;65.10;;;;;;4965544;28;20490;-60
2024/02/11 06:19:10;;;;;;;1.33;0.70;;;12.60;64.70;;;;;;4963304;28;20188;-62
2024/02/11 06:21:36;;;;;;;0.60;0.60;;;12.70;65.40;;;;;;4963234;28;20297;-60
2024/02/11 06:24:05;;;;;;;0.67;0.67;;;12.70;66.00;;;;;;4963927;28;20264;-60
2024/02/11 06:26:30;;;;;;;0.60;0.60;;;12.70;65.60;;;;;;4962062;28;20625;-60
2024/02/11 06:28:58;;;;;;;0.60;0.60;;;12.60;65.00;;;;;;4968516;28;20438;-61
2024/02/11 06:31:24;;;;;;;1.67;0.80;;;12.60;65.20;;;;;;4966094;28;22056;-61
2024/02/11 06:33:50;;;;;;;0.70;0.70;;;12.70;65.50;;;;;;4961805;28;20446;-61
2024/02/11 06:36:16;;;;;;;0.70;0.70;;;12.70;65.30;;;;;;4964290;28;20311;-60
2024/02/11 06:38:43;;;;;;;0.77;0.60;;;12.60;66.40;;;;;;4963974;28;20215;-62
2024/02/11 06:41:09;;;;;;;0.60;0.60;;;12.60;66.90;;;;;;4967705;28;20516;-59
2024/02/11 06:43:35;;;;;;;0.83;0.83;;;12.70;66.80;;;;;;4966947;28;20443;-61
2024/02/11 06:46:03;;;;;;;1.70;0.80;;;12.90;67.20;;;;;;4968138;28;20297;-61
2024/02/11 06:48:28;;;;;;;1.80;0.80;;;12.90;66.10;;;;;;4962603;28;20198;-61
2024/02/11 06:50:54;;;;;;;0.83;0.83;;;12.70;65.00;;;;;;4967322;28;21277;-61
2024/02/11 06:53:20;;;;;;;1.03;0.70;;;12.70;66.30;;;;;;4960209;28;20959;-61
2024/02/11 06:55:46;;;;;;;0.80;0.80;;;12.70;65.70;;;;;;4963655;28;20305;-62
2024/02/11 06:58:11;;;;;;;0.67;0.67;;;12.70;65.50;;;;;;4961939;28;20191;-60
2024/02/11 07:00:37;;;;;;;0.80;0.80;;;12.80;65.70;;;;;;4964991;28;20241;-62
2024/02/11 07:03:03;;;;;;;1.80;0.83;;;12.70;65.10;;;;;;4961480;28;20183;-62
2024/02/11 07:05:30;;;;;;;1.30;0.80;;;12.60;65.10;;;;;;4968075;28;20447;-61
2024/02/11 07:07:59;;;;;;;0.90;0.90;;;12.70;65.40;;;;;;4967429;28;20434;-62
2024/02/11 07:10:25;;;;;;;0.70;0.70;;;12.90;65.20;;;;;;4967625;28;20828;-61
2024/02/11 07:12:51;;;;;;;0.90;0.90;;;12.80;64.70;;;;;;4967396;28;20457;-61
2024/02/11 07:15:16;;;;;;;0.80;0.80;;;12.80;64.70;;;;;;4970025;28;20560;-61
2024/02/11 07:17:42;;;;;;;0.70;0.70;;;12.90;64.70;;;;;;4966583;28;20302;-61
2024/02/11 07:20:11;;;;;;;0.67;0.67;;;12.90;64.40;;;;;;4969142;28;20290;-61
2024/02/11 07:22:42;;;;;;;0.90;0.90;;;12.90;64.30;;;;;;4987367;28;20450;-61
2024/02/11 07:25:08;;;;;;;1.33;1.20;;;12.90;64.30;;;;;;4969148;28;20543;-61
2024/02/11 07:27:34;;;;;;;0.90;0.77;;;12.80;64.10;;;;;;4968204;28;20483;-61
2024/02/11 07:30:00;;;;;;;1.53;1.00;;;12.70;64.30;;;;;;4972966;28;20815;-60
2024/02/11 07:32:26;;;;;;;1.07;0.97;;;12.60;64.80;;;;;;4969230;28;20427;-61
2024/02/11 07:34:56;;;;;;;0.90;0.90;;;12.50;64.90;;;;;;4969323;28;20807;-62
2024/02/11 07:37:22;;;;;;;1.27;1.10;;;12.60;65.00;;;;;;4969237;28;20211;-61
2024/02/11 07:39:48;;;;;;;1.30;1.20;;;12.70;65.00;;;;;;4968068;28;20459;-62
2024/02/11 07:42:15;;;;;;;0.97;0.97;;;12.70;65.00;;;;;;4968638;28;20462;-60
2024/02/11 07:44:40;;;;;;;1.30;1.20;;;12.80;65.10;;;;;;4967621;28;20463;-61
2024/02/11 07:47:07;;;;;;;1.10;1.00;;;12.90;64.70;;;;;;4965860;28;20524;-60
2024/02/11 07:49:33;;;;;;;1.03;0.93;;;13.00;64.70;;;;;;4965509;28;20216;-60
2024/02/11 07:51:59;;;;;;;1.67;1.20;;;13.10;64.40;;;;;;4991265;28;20442;-61
2024/02/11 07:54:24;;;;;;;1.53;1.43;;;13.20;64.30;;;;;;4976495;28;20439;-59
2024/02/11 07:56:51;;;;;;;1.77;1.63;;;13.10;63.70;;;;;;5016264;28;20306;-62
2024/02/11 07:59:16;;;;;;;4.03;2.80;;;13.10;63.50;;;;;;4992552;28;20557;-61
2024/02/11 08:01:42;;;;;;;6.30;2.90;;;13.20;63.60;;;;;;5005329;28;20446;-62
2024/02/11 08:04:09;;;;;;;2.60;2.03;;;12.90;63.40;;;;;;4988253;28;20195;-62
2024/02/11 08:06:35;;;;;;;2.80;2.13;;;12.80;64.20;;;;;;4964753;28;20450;-60
2024/02/11 08:09:01;;;;;;;3.00;1.63;;;12.90;64.10;;;;;;4974521;28;20438;-60
2024/02/11 08:11:29;;;;;;;3.07;2.20;;;12.70;64.40;;;;;;4969230;28;20187;-61
2024/02/11 08:13:55;;;;;;;3.00;2.20;;;12.40;66.30;;;;;;4968371;28;20442;-61
2024/02/11 08:16:22;;;;;;;2.37;2.17;;;12.30;66.10;;;;;;4968308;28;20831;-61
2024/02/11 08:18:48;;;;;;;3.00;2.20;;;12.40;66.00;;;;;;4989172;28;20594;-59
2024/02/11 08:21:14;;;;;;;3.50;1.77;;;12.50;65.90;;;;;;4980474;28;20450;-58
2024/02/11 08:23:39;;;;;;;2.93;2.63;;;12.50;65.90;;;;;;5032979;28;20779;-60
2024/02/11 08:26:06;;;;;;;2.47;2.27;;;12.40;66.30;;;;;;4998078;28;20586;-60
2024/02/11 08:28:32;;;;;;;4.53;2.60;;;12.50;66.30;;;;;;4966554;28;20222;-61
2024/02/11 08:30:58;;;;;;;4.43;2.90;;;12.60;65.70;;;;;;4968346;28;20430;-61
2024/02/11 08:33:24;;;;;;;3.90;2.97;;;12.50;66.20;;;;;;4967783;28;20504;-61
2024/02/11 08:35:51;;;;;;;2.73;2.53;;;12.50;66.10;;;;;;4967899;28;20746;-61
2024/02/11 08:38:16;;;;;;;3.63;2.77;;;12.50;66.10;;;;;;4968004;28;20262;-61
2024/02/11 08:40:43;;;;;;;3.50;2.70;;;12.50;66.70;;;;;;4967564;28;20541;-59
2024/02/11 08:43:08;;;;;;;4.03;3.07;;;12.50;66.60;;;;;;4967580;28;20196;-60
2024/02/11 08:45:35;;;;;;;6.30;2.77;;;12.40;67.10;;;;;;4967620;28;20961;-61
2024/02/11 08:48:00;;;;;;;2.67;2.47;;;12.50;67.20;;;;;;4967547;28;20183;-61
2024/02/11 08:50:26;;;;;;;3.37;3.07;;;12.30;67.00;;;;;;4966200;28;20488;-61
2024/02/11 08:52:52;;;;;;;4.93;3.30;;;12.20;67.60;;;;;;4967428;28;20195;-61
2024/02/11 08:55:18;;;;;;;7.50;3.60;;;12.10;67.70;;;;;;4964559;28;20760;-61
2024/02/11 08:57:47;;;;;;;4.07;2.70;;;12.20;68.30;;;;;;4977919;28;20461;-60
2024/02/11 09:00:14;;;;;;;3.93;3.07;;;12.30;67.90;;;;;;4962531;28;20195;-60
2024/02/11 09:02:42;;;;;;;4.40;2.63;;;12.30;67.70;;;;;;4979316;28;20515;-61
2024/02/11 09:05:08;;;;;;;2.43;2.23;;;12.30;67.30;;;;;;4971056;28;21950;-61
2024/02/11 09:07:36;;;;;;;4.50;2.70;;;12.20;67.80;;;;;;4965244;28;20573;-61
2024/02/11 09:10:02;;;;;;;3.50;3.20;;;12.10;68.20;;;;;;4963733;28;20746;-62
2024/02/11 09:12:29;;;;;;;3.33;3.03;;;12.00;68.50;;;;;;4967095;28;20541;-61
2024/02/11 09:14:54;;;;;;;5.00;3.33;;;11.80;70.00;;;;;;4966223;28;20450;-60
2024/02/11 09:17:20;;;;;;;7.50;3.00;;;12.00;70.30;;;;;;4972386;28;20528;-61
2024/02/11 09:19:46;;;;;;;5.00;3.40;;;11.80;70.20;;;;;;4979238;28;20222;-60
2024/02/11 09:22:12;;;;;;;4.77;3.23;;;11.90;69.90;;;;;;4966469;28;20463;-61
2024/02/11 09:24:41;;;;;;;5.87;3.00;;;12.10;69.90;;;;;;4967598;28;20194;-59
2024/02/11 09:27:07;;;;;;;5.20;2.90;;;12.10;69.00;;;;;;4966594;28;20616;-61
2024/02/11 09:29:33;;;;;;;4.60;2.93;;;12.20;69.30;;;;;;4966569;28;20442;-61
2024/02/11 09:31:59;;;;;;;5.13;3.30;;;12.20;68.80;;;;;;4966797;28;20464;-61
2024/02/11 09:34:25;;;;;;;8.23;3.20;;;12.20;68.40;;;;;;5019111;28;20416;-60
2024/02/11 09:36:53;;;;;;;6.70;3.20;;;12.20;68.70;;;;;;5005457;28;20222;-61
2024/02/11 09:39:19;;;;;;;4.40;2.87;;;12.20;68.80;;;;;;5017681;28;20987;-62
2024/02/11 09:41:45;;;;;;;4.50;3.53;;;12.20;69.60;;;;;;5030024;28;20487;-61
2024/02/11 09:44:13;;;;;;;3.77;2.77;;;12.30;68.30;;;;;;5009909;28;20218;-61
2024/02/11 09:46:41;;;;;;;3.30;3.00;;;12.20;68.70;;;;;;4966463;28;20804;-62
2024/02/11 09:49:22;;;;;;;4.93;2.73;;;12.20;68.10;;;;;;4967468;28;20847;-61
2024/02/11 09:51:48;;;;;;;3.90;2.47;;;11.90;68.20;;;;;;4964941;28;20453;-61
2024/02/11 09:54:16;;;;;;;6.03;3.40;;;12.10;68.70;;;;;;4971764;28;21449;-59
2024/02/11 09:56:42;;;;;;;4.50;2.90;;;12.20;68.60;;;;;;5025223;28;20477;-61
2024/02/11 09:59:09;;;;;;;4.50;3.07;;;12.20;68.30;;;;;;5002766;28;20468;-60
2024/02/11 10:01:38;;;;;;;3.90;2.80;;;12.20;68.20;;;;;;4966382;28;20456;-61
2024/02/11 10:04:05;;;;;;;6.00;2.90;;;12.40;67.90;;;;;;4962390;28;20992;-61
2024/02/11 10:06:38;;;;;;;4.33;3.80;;;12.20;67.90;;;;;;4966082;28;21016;-61
2024/02/11 10:09:05;;;;;;;7.27;3.50;;;12.20;68.60;;;;;;4979111;28;20572;-59
2024/02/11 10:11:31;;;;;;;5.93;3.70;;;12.30;68.80;;;;;;4977268;28;20466;-59
2024/02/11 10:13:59;;;;;;;5.37;3.23;;;12.60;68.00;;;;;;5004481;28;20462;-61
2024/02/11 10:16:34;;;;;;;4.90;3.10;;;12.80;67.40;;;;;;4975609;28;20482;-60
2024/02/11 10:19:00;;;;;;;7.80;3.20;;;12.80;66.40;;;;;;4968879;28;20544;-61
2024/02/11 10:21:26;;;;;;;4.63;3.70;;;12.80;66.90;;;;;;4964127;28;20598;-61
2024/02/11 10:23:54;;;;;;;4.30;3.50;;;12.80;67.30;;;;;;4968279;28;20545;-62
2024/02/11 10:26:20;;;;;;;4.57;3.50;;;12.90;67.50;;;;;;4970191;28;20458;-61
2024/02/11 10:28:46;;;;;;;4.97;3.90;;;13.00;66.70;;;;;;4969635;28;20496;-61
2024/02/11 10:31:12;;;;;;;3.63;3.10;;;12.90;66.80;;;;;;4969846;28;20202;-61
2024/02/11 10:33:39;;;;;;;7.13;3.70;;;12.90;66.90;;;;;;4968477;28;20212;-60
2024/02/11 10:36:06;;;;;;;4.13;3.73;;;13.00;67.30;;;;;;4965736;28;20484;-60
2024/02/11 10:38:33;;;;;;;5.80;3.80;;;13.00;65.60;;;;;;4973482;28;20449;-61
2024/02/11 10:41:00;;;;;;;6.10;4.70;;;12.80;66.80;;;;;;4992705;28;20521;-61
2024/02/11 10:43:26;;;;;;;4.33;3.60;;;12.70;67.00;;;;;;4999220;28;20455;-61
2024/02/11 10:45:53;;;;;;;5.50;3.30;;;12.80;67.10;;;;;;4983897;28;20484;-62
2024/02/11 10:48:19;;;;;;;7.73;4.00;;;12.90;66.20;;;;;;4969197;28;20419;-60
2024/02/11 10:51:12;;;;;;;4.23;3.23;;;12.80;66.20;;;;;;4968603;28;20591;-61
2024/02/11 10:53:44;;;;;;;5.53;3.80;;;12.90;66.10;;;;;;4969132;28;20426;-61
2024/02/11 10:56:10;;;;;;;4.33;3.13;;;12.90;65.80;;;;;;4969776;28;20470;-60
2024/02/11 10:58:51;;;;;;;5.13;3.60;;;13.00;66.30;;;;;;4966015;28;20999;-61
2024/02/11 11:01:19;;;;;;;4.60;3.23;;;13.20;65.70;;;;;;4967758;28;20462;-61
2024/02/11 11:03:46;;;;;;;6.03;3.73;;;13.30;65.30;;;;;;4969947;28;20438;-60
2024/02/11 11:06:13;;;;;;;4.97;3.47;;;13.30;65.70;;;;;;4969531;28;20458;-61
2024/02/11 11:08:42;;;;;;;5.90;3.23;;;13.20;64.90;;;;;;4969027;28;20446;-61
2024/02/11 11:11:08;;;;;;;4.93;3.33;;;13.00;66.60;;;;;;4969791;28;20430;-61
2024/02/11 11:13:34;;;;;;;3.50;3.20;;;12.80;64.80;;;;;;4966075;28;20473;-61
2024/02/11 11:16:04;;;;;;;3.97;2.90;;;12.70;64.80;;;;;;4969382;28;20268;-61
2024/02/11 11:18:38;;;;;;;3.93;2.90;;;12.70;66.00;;;;;;4968444;28;20199;-61
2024/02/11 11:21:05;;;;;;;2.70;2.37;;;12.70;66.20;;;;;;4969090;28;20434;-61
2024/02/11 11:23:31;;;;;;;3.97;3.00;;;12.70;64.80;;;;;;4968613;28;20435;-62
2024/02/11 11:25:58;;;;;;;3.73;3.13;;;12.90;65.10;;;;;;4969040;28;20952;-60
2024/02/11 11:28:32;;;;;;;5.40;3.60;;;12.90;64.70;;;;;;4966532;28;20446;-61
2024/02/11 11:30:58;;;;;;;4.47;3.10;;;13.00;64.30;;;;;;4967575;28;20450;-61
2024/02/11 11:33:27;;;;;;;2.77;2.30;;;13.10;64.90;;;;;;4968511;28;20457;-61
2024/02/11 11:35:59;;;;;;;3.77;2.77;;;13.10;63.90;;;;;;4992957;28;20255;-62
2024/02/11 11:38:27;;;;;;;4.53;2.93;;;13.00;63.30;;;;;;4980744;28;20490;-60
2024/02/11 11:40:55;;;;;;;3.43;2.67;;;12.90;63.30;;;;;;4967756;28;20442;-61
2024/02/11 11:43:23;;;;;;;3.60;2.70;;;13.00;63.90;;;;;;4965978;28;20485;-62
2024/02/11 11:45:57;;;;;;;3.87;2.63;;;13.20;63.70;;;;;;4958309;28;20462;-62
2024/02/11 11:48:25;;;;;;;5.13;2.10;;;13.20;63.00;;;;;;4985893;28;20439;-60
2024/02/11 11:50:57;;;;;;;3.40;2.43;;;13.20;61.70;;;;;;4984417;28;20521;-61
2024/02/11 11:53:24;;;;;;;3.53;2.47;;;13.20;62.70;;;;;;4997450;28;20534;-62
2024/02/11 11:55:55;;;;;;;3.10;2.83;;;13.20;62.50;;;;;;4995671;28;20506;-60
2024/02/11 11:58:22;;;;;;;2.30;2.10;;;13.10;62.80;;;;;;4997071;28;20476;-62
2024/02/11 12:01:02;;;;;;;5.20;2.33;;;13.40;62.00;;;;;;4994076;28;20415;-60
2024/02/11 12:03:30;;;;;;;3.33;2.50;;;13.50;60.30;;;;;;5006007;28;20443;-62
2024/02/11 12:05:56;;;;;;;2.50;2.30;;;13.80;60.20;;;;;;4978108;28;20478;-61
2024/02/11 12:08:26;;;;;;;4.00;2.20;;;13.80;59.70;;;;;;5009743;28;20941;-61
2024/02/11 12:11:03;;;;;;;3.40;2.00;;;14.00;60.10;;;;;;5028558;28;20410;-60
2024/02/11 12:13:32;;;;;;;6.30;2.23;;;14.20;59.10;;;;;;4985476;28;20980;-61
2024/02/11 12:15:59;;;;;;;2.10;1.90;;;14.30;59.40;;;;;;4973757;28;20590;-62
2024/02/11 12:18:26;;;;;;;2.80;1.93;;;14.50;57.30;;;;;;4993608;28;20446;-61
2024/02/11 12:20:54;;;;;;;2.13;1.43;;;14.30;56.30;;;;;;5015769;28;20450;-62
2024/02/11 12:23:20;;;;;;;1.80;1.67;;;14.30;56.50;;;;;;5017434;28;21220;-61
2024/02/11 12:25:54;;;;;;;1.30;1.20;;;14.40;56.90;;;;;;5031089;28;20611;-60
2024/02/11 12:28:30;;;;;;;2.10;1.80;;;14.40;56.00;;;;;;5014368;28;20540;-61
2024/02/11 12:31:12;;;;;;;1.87;1.57;;;14.20;56.20;;;;;;4968740;28;20438;-61
2024/02/11 12:33:39;;;;;;;2.93;1.90;;;14.10;56.00;;;;;;4997538;28;20431;-60
2024/02/11 12:36:12;;;;;;;2.13;1.90;;;14.30;57.00;;;;;;5002109;28;20474;-61
2024/02/11 12:38:40;;;;;;;1.80;1.43;;;14.50;56.60;;;;;;4995860;28;20516;-60
2024/02/11 12:41:07;;;;;;;2.80;1.60;;;14.40;56.40;;;;;;4991734;28;20426;-61